Portada
METAR-TAF:

METAR-TAF

Aeropuertos :

Sarakhs, Irán

latitud: 36-30-04N, longitud: 061-03-54E, altitud: 288 m

Observación

El informe se hizo hace 54 minutos, a las 10:00 UTC
Viento 18 kt del noroeste
Temperatura 10°C
Humedad 71%
Presión 1026 hPa
Visibilidad 10 km o más
Escasas nubes a una altura de 3000 ft, Cumulonimbus.
Nubes dispersas a una altura de 3500 ft
Cielo cubierto a una altura de 9000 ft

METAR: OIMC 071000Z 32018KT 9999 FEW030CB SCT035 OVC090 10/05 Q1026

Hora: 15:24 (10:54 UTC)


TAF: falta

Observaciones y pronósticos meteorológicos de más de 4000 aeropuertos (mensajes METAR y TAF).

Los puntos amarillos y rojos representan las estaciones disponibles.

Ponga el ratón en el punto deseado para ver el nombre de la estación.

Haga clic para ver las observaciones y los pronósticos meteorológicos.

Para cambiar el mapa : haga clic en los botones verdes con una cruz de color negro para hacer un zoom, en el botón verde con un guión para alejar o en las flechas verdes para mapas adyacentes.


METAR-TAF: